Search for airport 
image banner adimage banner ad
image banner ad

SNCW - Centro de Lançamento de Alcântara Airport

Located in Alcântara, Brazil

ICAO - SNCW, IATA -

Data provided by Airmate  

General information

Coordinates: S2°22'18" W44°23'27"
Elevation is 148 feet MSL.
 
View others Airports in Maranhão

Operational data

Special qualification required
Current time UTC:
Current local time:
Weather at : SBSL - Marechal Cunha Machado ( 29 km )
METAR: SBSL 012000Z 05009KT 9999 SCT020 BKN100 28/25 Q1005
TAF: TAF SBSL 011520Z 0118/0218 04015KT 8000 BKN022 FEW030TCU TN24/0210Z TX31/0216Z TEMPO 0118/0122 4000 TSRA SCT010 BKN017 FEW025CB BECMG 0123/0201 06008KT 7000 SCT017 PROB40 TEMPO 0202/0210 5000 RA BKN013 FEW025TCU BECMG 0210/0212 09010KT 8000 BKN015 BECMG 0215/0217 05015KT BKN022 FEW030TCU RMK PHN
View NOTAMs / SUP AIP / TFR affecting this airport [VIEW]
Communications frequencies: [VIEW]

Runways:

Airport contact information

Address: Alcântara Brazil

Satellite view of SNCW